London Express — DPLE — position and weather

sailwx.info

Track history (hours):
 
Tides and Currents Weather Stations Pressure Air Temp Water Temp Dewpoint Dewpoint Depression Visibility Wind Speed Wind Dir Waves Ship Positions

London Express

Last reported at 2016-Aug-23 12:00 UTC. Time now 2016-Aug-24 08:26 UTC.
Position N 20°00' W 106°24'.

Length 294 m; beam 32.3 m; draft 13.6 m.

Type: Ship. MMSI: 211262630.

Wind from 070 at 14 knots

Waves 0.5 meters (2 feet), 2 second period

Barometer 1012.4 mb
Air temperature 29.6 ° C
Visibility: greater than 10.8 NM
Dewpoint 24.7 ° C
Water temperature 31.0 ° C

Date/timePositionNaut miles runAvg speedWind from/ knotsBaromVisibWave heightAir tempDewpointWater temp
2016-Aug-23 12:00N 20°00' W 106°24'26817.8 070 / 141012.410.8 0.529.624.731.0
2016-Aug-22 21:00N 22°18' W 110°30'6622.0 220 / 61011.610.8 0.531.422.128.0
2016-Aug-22 18:00N 22°54' W 111°30'22018.3 999 / 21013.010.8 0.529.222.328.0
2016-Aug-22 06:00N 25°42' W 114°06'12819.6 020 / 41011.310.8 23.519.024.0
2016-Aug-21 23:29N 27°23' W 115°33'15718.5
2016-Aug-21 15:00N 29°30' W 117°18'5621.5 340 / 131013.810.8 21.615.320.0
2016-Aug-21 12:24N 30°14' W 117°57'1819.1
2016-Aug-21 11:26N 30°29' W 118°10'1517.6
2016-Aug-21 10:34N 30°41' W 118°21'1616.0
2016-Aug-21 09:33N 30°54' W 118°32'1615.9
2016-Aug-21 08:34N 31°07' W 118°43'1716.6
2016-Aug-21 07:34N 31°20' W 118°55'1716.5
2016-Aug-21 06:33N 31°32' W 119°08'1716.6
2016-Aug-21 05:30N 31°45' W 119°22'3216.2
2016-Aug-21 03:33N 32°10' W 119°45'1716.6
2016-Aug-21 02:31N 32°24' W 119°57'13315.8
2016-Aug-20 18:06N 34°15' W 121°24'915.7
2016-Aug-20 17:32N 34°24' W 121°28'2115.3
2016-Aug-20 16:09N 34°44' W 121°36'914.9
2016-Aug-20 15:33N 34°52' W 121°40'3415.4
2016-Aug-20 13:21N 35°25' W 121°54'4215.1
2016-Aug-20 10:33N 36°04' W 122°11'1515.3
2016-Aug-20 09:33N 36°19' W 122°17'1515.1
2016-Aug-20 08:33N 36°33' W 122°23'1515.4
2016-Aug-20 07:34N 36°47' W 122°30'1615.6
2016-Aug-20 06:33N 37°02' W 122°36'1515.4
2016-Aug-20 05:34N 37°17' W 122°43'1010.1
2016-Aug-20 04:34N 37°27' W 122°44'10 9.7
2016-Aug-20 03:34N 37°36' W 122°44'9 9.3
2016-Aug-20 02:34N 37°45' W 122°40'1313.2
2016-Aug-20 01:34N 37°50' W 122°25'5 4.8
2016-Aug-20 00:33N 37°48' W 122°19'0 0.0
2016-Aug-19 23:34N 37°48' W 122°19'0 0.0
2016-Aug-19 22:33N 37°48' W 122°19'0 0.0
2016-Aug-19 21:33N 37°48' W 122°19'0 0.0
2016-Aug-19 20:32N 37°48' W 122°19'0 0.0
2016-Aug-19 19:32N 37°48' W 122°19'0 0.0
2016-Aug-19 18:31N 37°48' W 122°19'0 0.0
2016-Aug-19 17:31N 37°48' W 122°19'0 0.0
2016-Aug-19 16:33N 37°48' W 122°19'0 0.0
2016-Aug-19 15:33N 37°48' W 122°19'0 0.0
2016-Aug-19 14:33N 37°48' W 122°19'0 0.0
2016-Aug-19 13:32N 37°48' W 122°19'1 1.5
2016-Aug-19 12:33N 37°48' W 122°17'5 5.1
2016-Aug-19 11:33N 37°49' W 122°24'1312.7
2016-Aug-19 10:33N 37°46' W 122°39'8 8.4
2016-Aug-19 09:33N 37°48' W 122°50'10 9.5
2016-Aug-19 08:33N 37°52' W 123°00'9 9.5
2016-Aug-19 07:33N 37°57' W 123°10'10 9.7
2016-Aug-19 06:33N 38°05' W 123°19'1212.0
2016-Aug-19 05:33N 38°13' W 123°29'1919.2
2016-Aug-19 04:33N 38°27' W 123°46'1919.1
2016-Aug-19 03:33N 38°41' W 124°03'1919.1
2016-Aug-19 02:33N 38°55' W 124°19'32819.3
2016-Aug-18 09:33N 44°20' W 125°14'2019.8
2016-Aug-18 08:33N 44°40' W 125°14'2019.6
2016-Aug-18 07:33N 44°59' W 125°15'1919.6
2016-Aug-18 06:33N 45°19' W 125°16'2019.6
2016-Aug-18 05:34N 45°38' W 125°16'2019.8
2016-Aug-18 04:33N 45°58' W 125°17'2020.1
2016-Aug-18 03:34N 46°18' W 125°18'2020.4
2016-Aug-18 02:33N 46°39' W 125°19'2020.2
2016-Aug-18 01:33N 46°59' W 125°20'2020.1
2016-Aug-18 00:34N 47°19' W 125°21'2020.1
2016-Aug-17 23:33N 47°39' W 125°22'2019.8
2016-Aug-17 22:33N 47°59' W 125°18'2019.7
2016-Aug-17 21:31N 48°18' W 125°10'1616.8
2016-Aug-17 20:33N 48°30' W 124°54'1818.4
2016-Aug-17 19:33N 48°26' W 124°27'1717.1
2016-Aug-17 18:33N 48°20' W 124°03'1919.2
2016-Aug-17 17:33N 48°16' W 123°35'1313.1
2016-Aug-17 16:34N 48°23' W 123°18'1817.6
2016-Aug-17 15:34N 48°41' W 123°16'1313.5
2016-Aug-17 14:34N 48°53' W 123°06'1615.6
2016-Aug-17 13:33N 49°06' W 123°19'1212.0
2016-Aug-17 12:33N 49°09' W 123°01'5 4.6
2016-Aug-17 11:33N 49°11' W 122°55'0 0.0
2016-Aug-17 10:31N 49°11' W 122°55'0 0.0
2016-Aug-17 09:31N 49°11' W 122°55'0 0.0
2016-Aug-17 08:33N 49°11' W 122°55'0 0.0
2016-Aug-17 07:33N 49°11' W 122°55'0 0.0
2016-Aug-17 06:32N 49°11' W 122°55'0 0.0
2016-Aug-17 05:32N 49°11' W 122°55'0 0.0
2016-Aug-17 04:28N 49°11' W 122°55'0 0.0
2016-Aug-17 03:31N 49°11' W 122°55'0 0.0
2016-Aug-17 02:31N 49°11' W 122°55'0 0.0
2016-Aug-17 01:33N 49°11' W 122°55'0 0.0
2016-Aug-17 00:33N 49°11' W 122°55'0 0.0
2016-Aug-16 23:32N 49°11' W 122°55'0 0.0
2016-Aug-16 22:32N 49°11' W 122°55'0 0.0
2016-Aug-16 21:31N 49°11' W 122°55'0 0.0
2016-Aug-16 20:31N 49°11' W 122°55'0 0.0
2016-Aug-16 19:31N 49°11' W 122°55'0 0.0
2016-Aug-16 18:33N 49°11' W 122°55'0 0.0
2016-Aug-16 17:33N 49°11' W 122°55'0 0.0
2016-Aug-16 16:32N 49°11' W 122°55'0 0.0
2016-Aug-16 15:29N 49°11' W 122°55'0 0.0
2016-Aug-16 14:31N 49°11' W 122°55'0 0.0
2016-Aug-16 13:31N 49°11' W 122°55'0 0.0
2016-Aug-16 12:34N 49°11' W 122°55'0 0.0
2016-Aug-16 11:33N 49°11' W 122°55'0 0.1
2016-Aug-16 10:33N 49°11' W 122°55'7 7.4
2016-Aug-16 09:33N 49°07' W 123°05'1110.9
2016-Aug-16 08:33N 49°05' W 123°21'1515.3
2016-Aug-16 07:33N 48°54' W 123°05'3812.5
2016-Aug-16 04:33N 48°19' W 123°25'1010.2
2016-Aug-16 03:33N 48°09' W 123°23'1414.4
2016-Aug-16 02:34N 48°12' W 123°02'1717.3
2016-Aug-16 01:33N 48°06' W 122°39'1717.5
2016-Aug-16 00:33N 47°50' W 122°27'1414.2
2016-Aug-15 23:33N 47°36' W 122°21'1 0.9
2016-Aug-15 22:33N 47°35' W 122°21'0 0.0
2016-Aug-15 21:29N 47°35' W 122°21'0 0.0
2016-Aug-15 20:32N 47°35' W 122°21'0 0.0
2016-Aug-15 19:32N 47°35' W 122°21'0 0.0
2016-Aug-15 18:33N 47°35' W 122°21'0 0.0
2016-Aug-15 17:33N 47°35' W 122°21'0 0.0
2016-Aug-15 16:32N 47°35' W 122°21'0 0.0
2016-Aug-15 15:32N 47°35' W 122°21'0 0.0
2016-Aug-15 14:33N 47°35' W 122°21'0 0.0
2016-Aug-15 13:32N 47°35' W 122°21'0 0.0
2016-Aug-15 12:32N 47°35' W 122°21'0 0.0
2016-Aug-15 11:33N 47°35' W 122°21'0 0.0
2016-Aug-15 10:33N 47°35' W 122°21'0 0.0
2016-Aug-15 09:32N 47°35' W 122°21'0 0.0
2016-Aug-15 08:32N 47°35' W 122°21'0 0.0
2016-Aug-15 07:32N 47°35' W 122°21'0 0.0
2016-Aug-15 06:32N 47°35' W 122°21'0 0.0
2016-Aug-15 04:33N 47°35' W 122°21'0 0.0
2016-Aug-15 03:33N 47°35' W 122°21'0 0.0
2016-Aug-15 02:33N 47°35' W 122°21'0 0.0
2016-Aug-15 01:32N 47°35' W 122°21'0 0.0
2016-Aug-15 00:32N 47°35' W 122°21'0 0.0
2016-Aug-14 23:33N 47°35' W 122°21'5 4.8
2016-Aug-14 22:33N 47°38' W 122°26'1312.6
2016-Aug-14 21:34N 47°51' W 122°28'1817.9
2016-Aug-14 20:33N 48°07' W 122°40'1818.2
2016-Aug-14 19:33N 48°12' W 123°06'1515.0
2016-Aug-14 18:33N 48°12' W 123°29'1211.9
2016-Aug-14 17:33N 48°13' W 123°47'1413.9
2016-Aug-14 16:33N 48°17' W 124°07'1414.4
2016-Aug-14 15:34N 48°23' W 124°26'1414.2
2016-Aug-14 14:33N 48°29' W 124°46'1212.2
2016-Aug-14 13:33N 48°25' W 125°03'1414.1
2016-Aug-14 12:34N 48°12' W 125°12'1413.9
2016-Aug-14 11:34N 47°59' W 125°20'1413.6
2016-Aug-14 10:33N 47°45' W 125°22'1414.1
2016-Aug-14 09:33N 47°31' W 125°21'1413.7
2016-Aug-14 08:33N 47°18' W 125°21'1413.7
2016-Aug-14 07:33N 47°04' W 125°20'1413.9
2016-Aug-14 06:33N 46°50' W 125°19'814.3
2016-Aug-14 06:00N 46°42' W 125°18'2013.8 350 / 281018.0 5.4 16.311.117.0
2016-Aug-14 04:34N 46°22' W 125°18'1413.8
2016-Aug-14 03:34N 46°08' W 125°18'1413.8
2016-Aug-14 02:33N 45°55' W 125°17'1413.9
2016-Aug-14 01:33N 45°41' W 125°17'1413.9
2016-Aug-14 00:33N 45°27' W 125°16'1526.7
2016-Aug-14 00:00N 45°12' W 125°12'3 6.0 350 / 301017.6 2.2 2.020.414.317.0
2016-Aug-13 23:34N 45°13' W 125°16'1413.6
2016-Aug-13 22:33N 44°59' W 125°15'1413.6
2016-Aug-13 21:34N 44°46' W 125°14'2544.2
2016-Aug-13 21:00N 44°30' W 125°42'2046.3 360 / 231017.8 2.2 1.523.113.615.0
2016-Aug-13 20:33N 44°32' W 125°14'1413.8
2016-Aug-13 19:33N 44°18' W 125°13'1413.9
2016-Aug-13 18:33N 44°04' W 125°13'1513.7
2016-Aug-13 17:29N 43°49' W 125°12'1313.8
2016-Aug-13 16:33N 43°36' W 125°12'1413.8
2016-Aug-13 15:31N 43°22' W 125°11'1313.8
2016-Aug-13 14:33N 43°09' W 125°11'1414.2
2016-Aug-13 13:33N 42°55' W 125°10'1514.5
2016-Aug-13 12:33N 42°40' W 125°10'  
Track history (hours):
 
Tides and Currents Weather Stations Pressure Air Temp Water Temp Dewpoint Dewpoint Depression Visibility Wind Speed Wind Dir Waves Ship Positions

London Express

Last reported at 2016-Aug-23 12:00 UTC. Time now 2016-Aug-24 08:26 UTC.
Position N 20°00' W 106°24'.

Length 294 m; beam 32.3 m; draft 13.6 m.

Type: Ship. MMSI: 211262630.

Wind from 070 at 14 knots

Waves 0.5 meters (2 feet), 2 second period

Barometer 1012.4 mb
Air temperature 29.6 ° C
Visibility: greater than 10.8 NM
Dewpoint 24.7 ° C
Water temperature 31.0 ° C

Date/timePositionNaut miles runAvg speedWind from/ knotsBaromVisibWave heightAir tempDewpointWater temp
2016-Aug-23 12:00N 20°00' W 106°24'26817.8 070 / 141012.410.8 0.529.624.731.0
2016-Aug-22 21:00N 22°18' W 110°30'6622.0 220 / 61011.610.8 0.531.422.128.0
2016-Aug-22 18:00N 22°54' W 111°30'22018.3 999 / 21013.010.8 0.529.222.328.0
2016-Aug-22 06:00N 25°42' W 114°06'12819.6 020 / 41011.310.8 23.519.024.0
2016-Aug-21 23:29N 27°23' W 115°33'15718.5
2016-Aug-21 15:00N 29°30' W 117°18'5621.5 340 / 131013.810.8 21.615.320.0
2016-Aug-21 12:24N 30°14' W 117°57'1819.1
2016-Aug-21 11:26N 30°29' W 118°10'1517.6
2016-Aug-21 10:34N 30°41' W 118°21'1616.0
2016-Aug-21 09:33N 30°54' W 118°32'1615.9
2016-Aug-21 08:34N 31°07' W 118°43'1716.6
2016-Aug-21 07:34N 31°20' W 118°55'1716.5
2016-Aug-21 06:33N 31°32' W 119°08'1716.6
2016-Aug-21 05:30N 31°45' W 119°22'3216.2
2016-Aug-21 03:33N 32°10' W 119°45'1716.6
2016-Aug-21 02:31N 32°24' W 119°57'13315.8
2016-Aug-20 18:06N 34°15' W 121°24'915.7
2016-Aug-20 17:32N 34°24' W 121°28'2115.3
2016-Aug-20 16:09N 34°44' W 121°36'914.9
2016-Aug-20 15:33N 34°52' W 121°40'3415.4
2016-Aug-20 13:21N 35°25' W 121°54'4215.1
2016-Aug-20 10:33N 36°04' W 122°11'1515.3
2016-Aug-20 09:33N 36°19' W 122°17'1515.1
2016-Aug-20 08:33N 36°33' W 122°23'1515.4
2016-Aug-20 07:34N 36°47' W 122°30'1615.6
2016-Aug-20 06:33N 37°02' W 122°36'1515.4
2016-Aug-20 05:34N 37°17' W 122°43'1010.1
2016-Aug-20 04:34N 37°27' W 122°44'10 9.7
2016-Aug-20 03:34N 37°36' W 122°44'9 9.3
2016-Aug-20 02:34N 37°45' W 122°40'1313.2
2016-Aug-20 01:34N 37°50' W 122°25'5 4.8
2016-Aug-20 00:33N 37°48' W 122°19'0 0.0
2016-Aug-19 23:34N 37°48' W 122°19'0 0.0
2016-Aug-19 22:33N 37°48' W 122°19'0 0.0
2016-Aug-19 21:33N 37°48' W 122°19'0 0.0
2016-Aug-19 20:32N 37°48' W 122°19'0 0.0
2016-Aug-19 19:32N 37°48' W 122°19'0 0.0
2016-Aug-19 18:31N 37°48' W 122°19'0 0.0
2016-Aug-19 17:31N 37°48' W 122°19'0 0.0
2016-Aug-19 16:33N 37°48' W 122°19'0 0.0
2016-Aug-19 15:33N 37°48' W 122°19'0 0.0
2016-Aug-19 14:33N 37°48' W 122°19'0 0.0
2016-Aug-19 13:32N 37°48' W 122°19'1 1.5
2016-Aug-19 12:33N 37°48' W 122°17'5 5.1
2016-Aug-19 11:33N 37°49' W 122°24'1312.7
2016-Aug-19 10:33N 37°46' W 122°39'8 8.4
2016-Aug-19 09:33N 37°48' W 122°50'10 9.5
2016-Aug-19 08:33N 37°52' W 123°00'9 9.5
2016-Aug-19 07:33N 37°57' W 123°10'10 9.7
2016-Aug-19 06:33N 38°05' W 123°19'1212.0
2016-Aug-19 05:33N 38°13' W 123°29'1919.2
2016-Aug-19 04:33N 38°27' W 123°46'1919.1
2016-Aug-19 03:33N 38°41' W 124°03'1919.1
2016-Aug-19 02:33N 38°55' W 124°19'32819.3
2016-Aug-18 09:33N 44°20' W 125°14'2019.8
2016-Aug-18 08:33N 44°40' W 125°14'2019.6
2016-Aug-18 07:33N 44°59' W 125°15'1919.6
2016-Aug-18 06:33N 45°19' W 125°16'2019.6
2016-Aug-18 05:34N 45°38' W 125°16'2019.8
2016-Aug-18 04:33N 45°58' W 125°17'2020.1
2016-Aug-18 03:34N 46°18' W 125°18'2020.4
2016-Aug-18 02:33N 46°39' W 125°19'2020.2
2016-Aug-18 01:33N 46°59' W 125°20'2020.1
2016-Aug-18 00:34N 47°19' W 125°21'2020.1
2016-Aug-17 23:33N 47°39' W 125°22'2019.8
2016-Aug-17 22:33N 47°59' W 125°18'2019.7
2016-Aug-17 21:31N 48°18' W 125°10'1616.8
2016-Aug-17 20:33N 48°30' W 124°54'1818.4
2016-Aug-17 19:33N 48°26' W 124°27'1717.1
2016-Aug-17 18:33N 48°20' W 124°03'1919.2
2016-Aug-17 17:33N 48°16' W 123°35'1313.1
2016-Aug-17 16:34N 48°23' W 123°18'1817.6
2016-Aug-17 15:34N 48°41' W 123°16'1313.5
2016-Aug-17 14:34N 48°53' W 123°06'1615.6
2016-Aug-17 13:33N 49°06' W 123°19'1212.0
2016-Aug-17 12:33N 49°09' W 123°01'5 4.6
2016-Aug-17 11:33N 49°11' W 122°55'0 0.0
2016-Aug-17 10:31N 49°11' W 122°55'0 0.0
2016-Aug-17 09:31N 49°11' W 122°55'0 0.0
2016-Aug-17 08:33N 49°11' W 122°55'0 0.0
2016-Aug-17 07:33N 49°11' W 122°55'0 0.0
2016-Aug-17 06:32N 49°11' W 122°55'0 0.0
2016-Aug-17 05:32N 49°11' W 122°55'0 0.0
2016-Aug-17 04:28N 49°11' W 122°55'0 0.0
2016-Aug-17 03:31N 49°11' W 122°55'0 0.0
2016-Aug-17 02:31N 49°11' W 122°55'0 0.0
2016-Aug-17 01:33N 49°11' W 122°55'0 0.0
2016-Aug-17 00:33N 49°11' W 122°55'0 0.0
2016-Aug-16 23:32N 49°11' W 122°55'0 0.0
2016-Aug-16 22:32N 49°11' W 122°55'0 0.0
2016-Aug-16 21:31N 49°11' W 122°55'0 0.0
2016-Aug-16 20:31N 49°11' W 122°55'0 0.0
2016-Aug-16 19:31N 49°11' W 122°55'0 0.0
2016-Aug-16 18:33N 49°11' W 122°55'0 0.0
2016-Aug-16 17:33N 49°11' W 122°55'0 0.0
2016-Aug-16 16:32N 49°11' W 122°55'0 0.0
2016-Aug-16 15:29N 49°11' W 122°55'0 0.0
2016-Aug-16 14:31N 49°11' W 122°55'0 0.0
2016-Aug-16 13:31N 49°11' W 122°55'0 0.0
2016-Aug-16 12:34N 49°11' W 122°55'0 0.0
2016-Aug-16 11:33N 49°11' W 122°55'0 0.1
2016-Aug-16 10:33N 49°11' W 122°55'7 7.4
2016-Aug-16 09:33N 49°07' W 123°05'1110.9
2016-Aug-16 08:33N 49°05' W 123°21'1515.3
2016-Aug-16 07:33N 48°54' W 123°05'3812.5
2016-Aug-16 04:33N 48°19' W 123°25'1010.2
2016-Aug-16 03:33N 48°09' W 123°23'1414.4
2016-Aug-16 02:34N 48°12' W 123°02'1717.3
2016-Aug-16 01:33N 48°06' W 122°39'1717.5
2016-Aug-16 00:33N 47°50' W 122°27'1414.2
2016-Aug-15 23:33N 47°36' W 122°21'1 0.9
2016-Aug-15 22:33N 47°35' W 122°21'0 0.0
2016-Aug-15 21:29N 47°35' W 122°21'0 0.0
2016-Aug-15 20:32N 47°35' W 122°21'0 0.0
2016-Aug-15 19:32N 47°35' W 122°21'0 0.0
2016-Aug-15 18:33N 47°35' W 122°21'0 0.0
2016-Aug-15 17:33N 47°35' W 122°21'0 0.0
2016-Aug-15 16:32N 47°35' W 122°21'0 0.0
2016-Aug-15 15:32N 47°35' W 122°21'0 0.0
2016-Aug-15 14:33N 47°35' W 122°21'0 0.0
2016-Aug-15 13:32N 47°35' W 122°21'0 0.0
2016-Aug-15 12:32N 47°35' W 122°21'0 0.0
2016-Aug-15 11:33N 47°35' W 122°21'0 0.0
2016-Aug-15 10:33N 47°35' W 122°21'0 0.0
2016-Aug-15 09:32N 47°35' W 122°21'0 0.0
2016-Aug-15 08:32N 47°35' W 122°21'0 0.0
2016-Aug-15 07:32N 47°35' W 122°21'0 0.0
2016-Aug-15 06:32N 47°35' W 122°21'0 0.0
2016-Aug-15 04:33N 47°35' W 122°21'0 0.0
2016-Aug-15 03:33N 47°35' W 122°21'0 0.0
2016-Aug-15 02:33N 47°35' W 122°21'0 0.0
2016-Aug-15 01:32N 47°35' W 122°21'0 0.0
2016-Aug-15 00:32N 47°35' W 122°21'0 0.0
2016-Aug-14 23:33N 47°35' W 122°21'5 4.8
2016-Aug-14 22:33N 47°38' W 122°26'1312.6
2016-Aug-14 21:34N 47°51' W 122°28'1817.9
2016-Aug-14 20:33N 48°07' W 122°40'1818.2
2016-Aug-14 19:33N 48°12' W 123°06'1515.0
2016-Aug-14 18:33N 48°12' W 123°29'1211.9
2016-Aug-14 17:33N 48°13' W 123°47'1413.9
2016-Aug-14 16:33N 48°17' W 124°07'1414.4
2016-Aug-14 15:34N 48°23' W 124°26'1414.2
2016-Aug-14 14:33N 48°29' W 124°46'1212.2
2016-Aug-14 13:33N 48°25' W 125°03'1414.1
2016-Aug-14 12:34N 48°12' W 125°12'1413.9
2016-Aug-14 11:34N 47°59' W 125°20'1413.6
2016-Aug-14 10:33N 47°45' W 125°22'1414.1
2016-Aug-14 09:33N 47°31' W 125°21'1413.7
2016-Aug-14 08:33N 47°18' W 125°21'1413.7
2016-Aug-14 07:33N 47°04' W 125°20'1413.9
2016-Aug-14 06:33N 46°50' W 125°19'814.3
2016-Aug-14 06:00N 46°42' W 125°18'2013.8 350 / 281018.0 5.4 16.311.117.0
2016-Aug-14 04:34N 46°22' W 125°18'1413.8
2016-Aug-14 03:34N 46°08' W 125°18'1413.8
2016-Aug-14 02:33N 45°55' W 125°17'1413.9
2016-Aug-14 01:33N 45°41' W 125°17'1413.9
2016-Aug-14 00:33N 45°27' W 125°16'1526.7
2016-Aug-14 00:00N 45°12' W 125°12'3 6.0 350 / 301017.6 2.2 2.020.414.317.0
2016-Aug-13 23:34N 45°13' W 125°16'1413.6
2016-Aug-13 22:33N 44°59' W 125°15'1413.6
2016-Aug-13 21:34N 44°46' W 125°14'2544.2
2016-Aug-13 21:00N 44°30' W 125°42'2046.3 360 / 231017.8 2.2 1.523.113.615.0
2016-Aug-13 20:33N 44°32' W 125°14'1413.8
2016-Aug-13 19:33N 44°18' W 125°13'1413.9
2016-Aug-13 18:33N 44°04' W 125°13'1513.7
2016-Aug-13 17:29N 43°49' W 125°12'1313.8
2016-Aug-13 16:33N 43°36' W 125°12'1413.8
2016-Aug-13 15:31N 43°22' W 125°11'1313.8
2016-Aug-13 14:33N 43°09' W 125°11'1414.2
2016-Aug-13 13:33N 42°55' W 125°10'1514.5
2016-Aug-13 12:33N 42°40' W 125°10'  

Dump ship's entire track history